Time;durP1;ratioP1;P1;durP2;ratioP2;P2;SDS_P1;SDS_P2;PMS_P1;PMS_P2;Temp;Humidity;BMP_temperature;BMP_pressure;BME280_temperature;BME280_humidity;BME280_pressure;Samples;Min_cycle;Max_cycle;Signal;HPM_P1;HPM_P2
2022/10/07 00:01:36;;;;;;;26.73;17.83;;;8.80;99.90;;;;;;4997278;28;20247;-85
2022/10/07 00:04:03;;;;;;;27.58;17.98;;;8.80;99.90;;;;;;4998949;28;20574;-87
2022/10/07 00:06:31;;;;;;;22.45;16.50;;;8.80;99.90;;;;;;5002885;28;20197;-86
2022/10/07 00:09:01;;;;;;;23.67;17.45;;;8.80;99.90;;;;;;5003561;28;20219;-86
2022/10/07 00:11:28;;;;;;;19.33;16.25;;;8.70;99.90;;;;;;4998688;28;20219;-86
2022/10/07 00:13:59;;;;;;;19.95;16.13;;;8.70;99.90;;;;;;5004108;28;20214;-84
2022/10/07 00:16:28;;;;;;;18.58;16.58;;;8.60;99.90;;;;;;4992763;28;20207;-84
2022/10/07 00:18:59;;;;;;;22.50;17.35;;;8.50;99.90;;;;;;5002836;28;20594;-85
2022/10/07 00:21:30;;;;;;;20.45;16.48;;;8.60;99.90;;;;;;5001542;28;20211;-85
2022/10/07 00:23:58;;;;;;;18.77;16.77;;;8.60;99.90;;;;;;4995806;28;20207;-86
2022/10/07 00:26:36;;;;;;;26.15;18.33;;;8.50;99.90;;;;;;5000994;28;20209;-86
2022/10/07 00:29:05;;;;;;;28.05;19.23;;;8.50;99.90;;;;;;5000661;28;20414;-85
2022/10/07 00:31:35;;;;;;;21.33;16.40;;;8.60;99.90;;;;;;5001376;28;20270;-84
2022/10/07 00:34:03;;;;;;;23.58;18.80;;;8.70;99.90;;;;;;4994586;28;20221;-85
2022/10/07 00:36:33;;;;;;;22.55;18.88;;;8.70;99.90;;;;;;5001266;28;20261;-84
2022/10/07 00:39:04;;;;;;;23.33;17.45;;;8.60;99.90;;;;;;4998231;28;20221;-85
2022/10/07 00:41:39;;;;;;;24.33;18.75;;;8.60;99.90;;;;;;4990029;28;20198;-84
2022/10/07 00:44:31;;;;;;;30.60;19.92;;;8.60;99.90;;;;;;4997617;28;20214;-84
2022/10/07 00:47:02;;;;;;;25.98;19.40;;;8.60;99.90;;;;;;4995362;28;20277;-84
2022/10/07 00:49:33;;;;;;;18.95;16.00;;;8.60;99.90;;;;;;4997890;28;20230;-84
2022/10/07 00:52:01;;;;;;;22.20;17.10;;;8.40;99.90;;;;;;5004484;28;20198;-85
2022/10/07 00:54:29;;;;;;;21.40;18.55;;;8.40;99.90;;;;;;5016055;28;20195;-82
2022/10/07 00:56:59;;;;;;;32.60;20.83;;;8.40;99.90;;;;;;4992393;28;20192;-86
2022/10/07 00:59:26;;;;;;;23.95;18.48;;;8.40;99.90;;;;;;4994474;28;20208;-86
2022/10/07 01:01:56;;;;;;;28.83;21.70;;;8.50;99.90;;;;;;5001511;28;20258;-85
2022/10/07 01:04:23;;;;;;;25.15;20.55;;;8.40;99.90;;;;;;4995705;28;20218;-86
2022/10/07 01:06:53;;;;;;;24.40;19.73;;;8.50;99.90;;;;;;5001606;28;20238;-85
2022/10/07 01:09:26;;;;;;;31.05;21.50;;;8.50;99.90;;;;;;5001842;28;20473;-84
2022/10/07 01:12:06;;;;;;;26.25;21.10;;;8.40;99.90;;;;;;4990744;28;20211;-84
2022/10/07 01:14:58;;;;;;;30.10;20.30;;;8.40;99.90;;;;;;5000332;28;20248;-84
2022/10/07 01:17:51;;;;;;;27.17;18.85;;;8.40;99.90;;;;;;5001090;28;20712;-84
2022/10/07 01:21:02;;;;;;;30.50;22.00;;;8.30;99.90;;;;;;4987664;28;20210;-86
2022/10/07 01:24:02;;;;;;;36.72;21.23;;;8.40;99.90;;;;;;4989931;28;20205;-86
2022/10/07 01:26:44;;;;;;;27.15;20.85;;;8.20;99.90;;;;;;4980666;28;20211;-86
2022/10/07 01:29:17;;;;;;;32.08;20.15;;;8.20;99.90;;;;;;5000688;28;20232;-86
2022/10/07 01:31:53;;;;;;;24.80;19.88;;;8.30;99.90;;;;;;4998625;28;20278;-84
2022/10/07 01:34:22;;;;;;;35.13;21.50;;;8.30;99.90;;;;;;4995096;28;20246;-84
2022/10/07 01:36:53;;;;;;;28.30;21.52;;;8.30;99.90;;;;;;4995148;28;20211;-83
2022/10/07 01:39:28;;;;;;;22.55;19.52;;;8.20;99.90;;;;;;4995165;28;20206;-84
2022/10/07 01:41:56;;;;;;;24.95;20.38;;;8.20;99.90;;;;;;5000402;28;20226;-85
2022/10/07 01:44:28;;;;;;;24.98;20.95;;;8.20;99.90;;;;;;5001460;28;20213;-84
2022/10/07 01:46:57;;;;;;;26.23;21.33;;;8.10;99.90;;;;;;5002778;28;20209;-84
2022/10/07 01:49:25;;;;;;;26.92;20.63;;;8.00;99.90;;;;;;5007601;28;20277;-85
2022/10/07 01:52:25;;;;;;;33.80;19.67;;;8.00;99.90;;;;;;5004694;28;20236;-85
2022/10/07 01:55:31;;;;;;;27.50;20.02;;;8.00;99.90;;;;;;5002232;28;20194;-85
2022/10/07 01:58:01;;;;;;;26.45;19.25;;;8.00;99.90;;;;;;4994297;28;20211;-84
2022/10/07 02:00:30;;;;;;;28.52;20.83;;;8.00;99.90;;;;;;4998729;28;20227;-84
2022/10/07 02:03:29;;;;;;;27.60;21.45;;;8.00;99.90;;;;;;4998429;28;20210;-85
2022/10/07 02:06:14;;;;;;;28.83;21.20;;;8.00;99.90;;;;;;4992335;28;20214;-85
2022/10/07 02:08:47;;;;;;;32.30;22.15;;;8.00;99.90;;;;;;5001355;28;20457;-84
2022/10/07 02:11:41;;;;;;;27.17;21.05;;;8.00;99.90;;;;;;4997875;28;20214;-85
2022/10/07 02:14:18;;;;;;;26.02;20.15;;;8.10;99.90;;;;;;4990034;28;20207;-84
2022/10/07 02:16:48;;;;;;;26.35;21.55;;;8.00;99.90;;;;;;4994545;28;20273;-85
2022/10/07 02:19:52;;;;;;;25.13;20.02;;;8.00;99.90;;;;;;5004724;28;20189;-85
2022/10/07 02:22:22;;;;;;;29.58;20.15;;;7.80;99.90;;;;;;5009144;28;20213;-84
2022/10/07 02:24:54;;;;;;;22.67;20.02;;;7.80;99.90;;;;;;5011065;28;20193;-84
2022/10/07 02:27:26;;;;;;;30.30;20.08;;;7.90;99.90;;;;;;4998870;28;20229;-85
2022/10/07 02:30:05;;;;;;;27.70;23.60;;;7.80;99.90;;;;;;4989555;28;20662;-84
2022/10/07 02:32:33;;;;;;;35.33;23.08;;;7.90;99.90;;;;;;4991200;28;20206;-85
2022/10/07 02:35:07;;;;;;;26.33;21.00;;;7.90;99.90;;;;;;4997288;28;20735;-84
2022/10/07 02:37:40;;;;;;;29.50;21.60;;;7.80;99.90;;;;;;5005975;28;20205;-84
2022/10/07 02:40:08;;;;;;;34.97;23.60;;;7.90;99.90;;;;;;4990343;28;20214;-84
2022/10/07 02:42:57;;;;;;;30.20;21.92;;;7.90;99.90;;;;;;4989988;28;20256;-87
2022/10/07 02:45:42;;;;;;;31.08;21.95;;;7.80;99.90;;;;;;5000563;28;20224;-84
2022/10/07 02:48:32;;;;;;;34.63;25.52;;;7.60;99.90;;;;;;4994630;28;20223;-85
2022/10/07 02:51:07;;;;;;;31.10;22.27;;;7.60;99.90;;;;;;4991030;28;20254;-85
2022/10/07 02:53:37;;;;;;;41.75;23.98;;;7.70;99.90;;;;;;4987466;28;20210;-85
2022/10/07 02:56:06;;;;;;;31.05;23.48;;;7.80;99.90;;;;;;4993275;28;20218;-85
2022/10/07 02:58:41;;;;;;;35.55;23.67;;;7.80;99.90;;;;;;4999632;28;20205;-85
2022/10/07 03:01:09;;;;;;;32.58;23.63;;;7.90;99.90;;;;;;4993312;28;20205;-84
2022/10/07 03:03:38;;;;;;;38.35;25.50;;;7.90;99.90;;;;;;4993332;28;20210;-84
2022/10/07 03:06:11;;;;;;;35.45;23.63;;;7.80;99.90;;;;;;4993745;28;20287;-81
2022/10/07 03:08:39;;;;;;;31.10;23.88;;;7.80;99.90;;;;;;4999975;28;20217;-83
2022/10/07 03:11:07;;;;;;;29.83;22.88;;;7.80;99.90;;;;;;5004745;28;20451;-84
2022/10/07 03:13:35;;;;;;;29.15;24.50;;;7.80;99.90;;;;;;5004194;28;20399;-85
2022/10/07 03:16:05;;;;;;;35.55;23.45;;;7.80;99.90;;;;;;4998777;28;20493;-85
2022/10/07 03:18:35;;;;;;;34.35;24.67;;;7.80;99.90;;;;;;4984732;28;20379;-83
2022/10/07 03:21:03;;;;;;;32.95;23.48;;;7.80;99.90;;;;;;4988953;28;20202;-83
2022/10/07 03:23:32;;;;;;;32.45;22.75;;;7.80;99.90;;;;;;4997414;28;20237;-83
2022/10/07 03:26:02;;;;;;;34.08;23.10;;;7.70;99.90;;;;;;5006079;28;20205;-86
2022/10/07 03:28:34;;;;;;;33.80;24.20;;;7.70;99.90;;;;;;5015079;28;20214;-85
2022/10/07 03:31:06;;;;;;;28.38;23.65;;;7.70;99.90;;;;;;5015396;28;20276;-84
2022/10/07 03:33:36;;;;;;;30.67;22.70;;;7.40;99.90;;;;;;5002556;28;20216;-85
2022/10/07 03:36:04;;;;;;;34.20;25.10;;;7.50;99.90;;;;;;4998450;28;20214;-84
2022/10/07 03:38:38;;;;;;;34.97;24.00;;;7.40;99.90;;;;;;5007741;28;20217;-85
2022/10/07 03:41:07;;;;;;;35.90;23.75;;;7.30;99.90;;;;;;4998166;28;20280;-85
2022/10/07 03:43:36;;;;;;;36.65;22.83;;;7.30;99.90;;;;;;5002759;28;20284;-83
2022/10/07 03:46:05;;;;;;;27.08;22.67;;;7.40;99.90;;;;;;4997044;28;20205;-82
2022/10/07 03:48:35;;;;;;;32.75;22.65;;;7.30;99.90;;;;;;5002004;28;20229;-82
2022/10/07 03:51:04;;;;;;;33.03;22.75;;;7.30;99.90;;;;;;4992695;28;20418;-83
2022/10/07 03:53:31;;;;;;;30.83;23.50;;;7.40;99.90;;;;;;5001964;28;20213;-82
2022/10/07 03:55:58;;;;;;;36.75;22.65;;;7.50;99.90;;;;;;4995477;28;20220;-83
2022/10/07 03:58:28;;;;;;;30.88;23.58;;;7.50;99.90;;;;;;5002886;28;20206;-82
2022/10/07 04:01:11;;;;;;;30.00;20.95;;;7.50;99.90;;;;;;4994518;28;20210;-85
2022/10/07 04:03:38;;;;;;;32.92;22.10;;;7.30;99.90;;;;;;4998344;28;20197;-85
2022/10/07 04:06:18;;;;;;;28.20;22.15;;;7.40;99.90;;;;;;4991097;28;20510;-85
2022/10/07 04:08:45;;;;;;;30.58;22.40;;;7.40;99.90;;;;;;4995841;28;20233;-84
2022/10/07 04:11:16;;;;;;;33.97;23.70;;;7.40;99.90;;;;;;5004867;28;20217;-84
2022/10/07 04:13:44;;;;;;;28.27;22.23;;;7.10;99.90;;;;;;5017909;28;20209;-84
2022/10/07 04:16:12;;;;;;;33.17;24.92;;;7.20;99.90;;;;;;5002225;28;20213;-85
2022/10/07 04:18:42;;;;;;;30.70;23.88;;;7.30;99.90;;;;;;4997139;28;20197;-83
2022/10/07 04:21:09;;;;;;;28.98;20.40;;;7.30;99.90;;;;;;4997160;28;20206;-83
2022/10/07 04:23:39;;;;;;;26.92;21.40;;;7.50;99.90;;;;;;5007751;28;20213;-83
2022/10/07 04:26:09;;;;;;;32.40;21.23;;;7.50;99.90;;;;;;5002227;28;20676;-82
2022/10/07 04:28:37;;;;;;;34.95;22.45;;;7.40;99.90;;;;;;5002267;28;20413;-86
2022/10/07 04:31:07;;;;;;;26.88;20.38;;;7.50;99.90;;;;;;5000535;28;20221;-84
2022/10/07 04:33:41;;;;;;;25.20;21.70;;;7.60;99.90;;;;;;5002669;28;20212;-84
2022/10/07 04:36:11;;;;;;;31.67;23.85;;;7.40;99.90;;;;;;5001875;28;20288;-86
2022/10/07 04:38:38;;;;;;;35.22;22.92;;;7.50;99.90;;;;;;5001743;28;20208;-85
2022/10/07 04:41:06;;;;;;;31.13;22.08;;;7.40;99.90;;;;;;4999052;28;20212;-86
2022/10/07 04:43:41;;;;;;;30.55;22.40;;;7.30;99.90;;;;;;5001740;28;20208;-85
2022/10/07 04:46:15;;;;;;;34.65;22.45;;;7.30;99.90;;;;;;5005376;28;20205;-83
2022/10/07 04:49:00;;;;;;;33.75;25.27;;;7.20;99.90;;;;;;4996380;28;20224;-88
2022/10/07 04:51:46;;;;;;;37.88;25.25;;;7.00;99.90;;;;;;5004476;28;20295;-84
2022/10/07 04:54:15;;;;;;;35.55;25.48;;;6.80;99.90;;;;;;4990923;28;20221;-83
2022/10/07 04:56:41;;;;;;;31.17;24.67;;;6.80;99.90;;;;;;4992855;28;20206;-83
2022/10/07 04:59:10;;;;;;;36.65;25.67;;;6.80;99.90;;;;;;5007557;28;20415;-81
2022/10/07 05:01:40;;;;;;;34.10;25.42;;;6.90;99.90;;;;;;5005295;28;20228;-82
2022/10/07 05:04:17;;;;;;;36.53;24.17;;;7.00;99.90;;;;;;5000526;28;20489;-82
2022/10/07 05:06:44;;;;;;;36.22;24.88;;;7.10;99.90;;;;;;5002189;28;20205;-81
2022/10/07 05:09:13;;;;;;;35.75;25.48;;;7.10;99.90;;;;;;4999213;28;20712;-82
2022/10/07 05:11:40;;;;;;;34.63;25.83;;;7.10;99.90;;;;;;5000596;28;20248;-83
2022/10/07 05:14:10;;;;;;;34.13;26.17;;;7.00;99.90;;;;;;4999040;28;20276;-82
2022/10/07 05:16:36;;;;;;;39.80;29.33;;;7.00;99.90;;;;;;4999870;28;20260;-82
2022/10/07 05:19:03;;;;;;;42.65;28.90;;;7.10;99.90;;;;;;5000737;28;20289;-82
2022/10/07 05:21:30;;;;;;;33.50;26.10;;;7.10;99.90;;;;;;5002112;28;20393;-82
2022/10/07 05:23:57;;;;;;;33.15;25.90;;;7.20;99.90;;;;;;5004823;28;20260;-81
2022/10/07 05:26:25;;;;;;;42.05;27.33;;;7.20;99.90;;;;;;5013236;28;20217;-81
2022/10/07 05:28:54;;;;;;;31.88;24.60;;;7.10;99.90;;;;;;5003739;28;20279;-82
2022/10/07 05:31:21;;;;;;;37.35;25.17;;;7.00;99.90;;;;;;4994500;28;20472;-81
2022/10/07 05:33:50;;;;;;;40.58;27.30;;;7.10;99.90;;;;;;4986898;28;20489;-82
2022/10/07 05:36:18;;;;;;;34.03;25.23;;;7.40;99.90;;;;;;5001520;28;20206;-82
2022/10/07 05:38:46;;;;;;;32.45;24.13;;;7.30;99.90;;;;;;4991290;28;20214;-84
2022/10/07 05:41:13;;;;;;;30.63;23.33;;;7.30;99.90;;;;;;5000958;28;20359;-85
2022/10/07 05:43:41;;;;;;;36.13;25.30;;;7.20;99.90;;;;;;4988752;28;20205;-82
2022/10/07 05:46:12;;;;;;;35.25;25.55;;;7.40;99.90;;;;;;4993488;28;20239;-82
2022/10/07 05:48:40;;;;;;;38.88;25.75;;;7.60;99.90;;;;;;4998685;28;20209;-83
2022/10/07 05:51:07;;;;;;;34.95;26.48;;;7.70;99.90;;;;;;5000508;28;20256;-84
2022/10/07 05:53:39;;;;;;;31.95;25.80;;;7.70;99.90;;;;;;4999909;28;20218;-83
2022/10/07 05:56:08;;;;;;;35.80;24.58;;;7.70;99.90;;;;;;5005291;28;20394;-84
2022/10/07 05:58:35;;;;;;;36.85;24.45;;;7.80;99.90;;;;;;5012435;28;20190;-83
2022/10/07 06:01:06;;;;;;;33.42;26.15;;;7.50;99.90;;;;;;5007084;28;20198;-87
2022/10/07 06:03:40;;;;;;;32.67;26.23;;;7.50;99.90;;;;;;4999138;28;20218;-82
2022/10/07 06:06:10;;;;;;;32.00;26.13;;;7.70;99.90;;;;;;4990587;28;20202;-84
2022/10/07 06:08:40;;;;;;;38.40;26.00;;;7.80;99.90;;;;;;4991639;28;20207;-88
2022/10/07 06:14:05;;;;;;;36.35;26.88;;;8.50;99.90;;;;;;4995414;28;20216;-85
2022/10/07 06:16:38;;;;;;;34.45;27.58;;;8.80;99.90;;;;;;5000746;28;20206;-85
2022/10/07 06:19:21;;;;;;;35.17;25.83;;;9.20;99.90;;;;;;5000617;28;20213;-85
2022/10/07 06:21:53;;;;;;;41.28;24.40;;;9.70;99.90;;;;;;4995761;28;20403;-85
2022/10/07 06:24:24;;;;;;;26.52;21.15;;;10.30;99.90;;;;;;4991980;28;20209;-84
2022/10/07 06:26:54;;;;;;;22.23;16.75;;;10.90;99.90;;;;;;4993309;28;20213;-84
2022/10/07 06:29:21;;;;;;;18.52;12.68;;;10.80;99.90;;;;;;4996256;28;20272;-83
2022/10/07 06:31:55;;;;;;;13.85;9.82;;;10.80;99.90;;;;;;4985949;28;20213;-83
2022/10/07 06:34:23;;;;;;;17.42;13.05;;;10.10;99.90;;;;;;4996790;28;20296;-83
2022/10/07 06:36:52;;;;;;;14.20;10.70;;;10.00;99.90;;;;;;4994245;28;20200;-84
2022/10/07 06:39:20;;;;;;;16.63;13.23;;;9.80;99.90;;;;;;4996760;28;20447;-84
2022/10/07 06:41:56;;;;;;;14.05;10.95;;;9.80;99.90;;;;;;4991996;28;20444;-85
2022/10/07 06:44:27;;;;;;;15.10;11.85;;;9.70;99.90;;;;;;4997173;28;20208;-85
2022/10/07 06:46:57;;;;;;;11.00;10.00;;;9.70;99.90;;;;;;4990615;28;20516;-85
2022/10/07 06:49:24;;;;;;;12.88;9.98;;;10.10;99.90;;;;;;4998940;28;20432;-85
2022/10/07 06:51:52;;;;;;;13.02;10.38;;;10.20;99.90;;;;;;5002336;28;20213;-84
2022/10/07 06:54:25;;;;;;;33.92;12.63;;;10.00;99.90;;;;;;5000890;28;20304;-86
2022/10/07 06:56:53;;;;;;;14.40;11.80;;;10.10;99.90;;;;;;5001738;28;20212;-85
2022/10/07 06:59:22;;;;;;;18.23;12.38;;;10.20;99.90;;;;;;5004665;28;20269;-85
2022/10/07 07:02:02;;;;;;;14.23;12.77;;;10.10;99.90;;;;;;4990754;28;20217;-86
2022/10/07 07:04:37;;;;;;;21.98;12.77;;;10.10;99.90;;;;;;5004172;28;20530;-86
2022/10/07 07:07:08;;;;;;;19.15;12.32;;;10.30;99.90;;;;;;5006406;28;20280;-88
2022/10/07 07:09:35;;;;;;;12.38;10.50;;;10.40;99.90;;;;;;5003486;28;20548;-84
2022/10/07 07:12:06;;;;;;;16.67;10.60;;;10.50;99.90;;;;;;5011959;28;20190;-86
2022/10/07 07:14:35;;;;;;;19.42;11.27;;;10.80;99.90;;;;;;5017980;28;20224;-85
2022/10/07 07:17:06;;;;;;;14.70;10.75;;;11.40;99.90;;;;;;5006242;28;20222;-86
2022/10/07 07:19:35;;;;;;;12.20;8.95;;;12.10;99.90;;;;;;5007429;28;20194;-85
2022/10/07 07:22:04;;;;;;;11.18;8.40;;;13.50;99.90;;;;;;5011246;28;20526;-87
2022/10/07 07:24:45;;;;;;;15.43;9.20;;;15.50;99.90;;;;;;5005933;28;20456;-86
2022/10/07 07:27:14;;;;;;;8.87;8.00;;;16.90;99.90;;;;;;4995366;28;20452;-88
2022/10/07 07:29:43;;;;;;;16.37;8.97;;;18.50;99.90;;;;;;5011157;28;20546;-86
2022/10/07 07:32:12;;;;;;;10.37;7.73;;;20.00;99.90;;;;;;5015148;28;20470;-86
2022/10/07 07:34:41;;;;;;;9.20;8.13;;;20.80;99.90;;;;;;5002898;28;20453;-85
2022/10/07 07:37:08;;;;;;;10.67;8.13;;;21.00;99.90;;;;;;5000053;28;20460;-89
2022/10/07 07:39:41;;;;;;;9.23;7.53;;;21.40;99.90;;;;;;4991225;28;20436;-83
2022/10/07 07:42:09;;;;;;;12.97;8.50;;;21.50;99.90;;;;;;5008192;28;20917;-85
2022/10/07 07:44:39;;;;;;;10.47;8.40;;;21.80;99.90;;;;;;5008484;28;20458;-88
2022/10/07 07:47:11;;;;;;;11.23;8.47;;;21.30;99.90;;;;;;5006036;28;20446;-81
2022/10/07 07:49:38;;;;;;;8.43;7.73;;;22.70;99.90;;;;;;5013653;28;20497;-87
2022/10/07 07:52:06;;;;;;;8.47;7.40;;;21.80;99.90;;;;;;5095758;23;20826;-88
2022/10/07 07:54:38;;;;;;;7.67;6.87;;;21.00;99.90;;;;;;5008292;28;20769;-88
2022/10/07 07:57:05;;;;;;;8.93;7.83;;;21.30;99.90;;;;;;4999392;28;20731;-87
2022/10/07 07:59:32;;;;;;;15.37;7.50;;;21.80;99.90;;;;;;5000395;28;20767;-85
2022/10/07 08:02:01;;;;;;;10.07;8.70;;;23.00;99.90;;;;;;5007738;28;20444;-85
2022/10/07 08:04:29;;;;;;;8.37;7.53;;;22.70;99.90;;;;;;4994428;28;20414;-88
2022/10/07 08:06:57;;;;;;;10.27;6.60;;;21.60;99.90;;;;;;5004157;28;20506;-85
2022/10/07 08:09:29;;;;;;;8.40;7.50;;;21.70;99.90;;;;;;5001332;28;21055;-83
2022/10/07 08:12:01;;;;;;;11.50;8.03;;;22.00;99.90;;;;;;5000922;28;20419;-86
2022/10/07 08:14:30;;;;;;;11.67;8.10;;;21.00;99.90;;;;;;4994505;28;20423;-87
2022/10/07 08:17:11;;;;;;;9.10;7.80;;;20.50;99.90;;;;;;5010237;28;20427;-90
2022/10/07 08:19:55;;;;;;;8.57;7.30;;;20.20;99.90;;;;;;5014458;28;20446;-84
2022/10/07 08:22:26;;;;;;;9.10;7.50;;;21.60;99.90;;;;;;5128193;23;20513;-84
2022/10/07 08:24:58;;;;;;;9.83;7.17;;;21.40;99.90;;;;;;5015348;28;20435;-86
2022/10/07 08:27:27;;;;;;;10.77;7.80;;;21.60;99.90;;;;;;5017767;28;20410;-88
2022/10/07 08:29:55;;;;;;;9.60;8.30;;;22.20;99.90;;;;;;5003769;28;20491;-87
2022/10/07 08:32:23;;;;;;;7.40;6.70;;;22.50;99.90;;;;;;5005054;28;20465;-88
2022/10/07 08:34:51;;;;;;;8.60;7.20;;;21.70;99.90;;;;;;5015225;28;20435;-85
2022/10/07 08:37:19;;;;;;;8.40;7.70;;;22.00;99.90;;;;;;4996211;28;20423;-85
2022/10/07 08:39:46;;;;;;;6.97;6.20;;;21.10;99.90;;;;;;5003533;28;20459;-82
2022/10/07 08:42:32;;;;;;;6.30;5.73;;;20.60;99.90;;;;;;5002393;28;20451;-85
2022/10/07 08:44:59;;;;;;;6.37;5.17;;;19.90;99.90;;;;;;4996409;28;20434;-85
2022/10/07 08:47:37;;;;;;;11.63;6.77;;;19.90;99.90;;;;;;4994327;28;20455;-85
2022/10/07 08:50:34;;;;;;;7.53;6.83;;;20.40;99.90;;;;;;4996076;28;20471;-84
2022/10/07 08:53:10;;;;;;;7.90;6.20;;;19.80;99.90;;;;;;4995204;28;20465;-87
2022/10/07 08:56:22;;;;;;;12.60;6.80;;;19.10;99.90;;;;;;5001972;28;20467;-83
2022/10/07 08:58:59;;;;;;;9.60;6.60;;;18.60;99.90;;;;;;4988135;28;20481;-87
2022/10/07 09:01:47;;;;;;;9.40;5.90;;;18.10;99.90;;;;;;4985315;28;20483;-86
2022/10/07 09:04:42;;;;;;;6.23;5.73;;;17.80;99.90;;;;;;4993725;28;20434;-86
2022/10/07 09:07:36;;;;;;;7.30;6.17;;;18.30;99.90;;;;;;5005359;28;20435;-87
2022/10/07 09:10:27;;;;;;;6.53;5.93;;;18.90;99.90;;;;;;5009793;28;20479;-81
2022/10/07 09:13:16;;;;;;;9.03;6.43;;;18.10;99.90;;;;;;5004582;28;20455;-87
2022/10/07 09:15:57;;;;;;;6.70;6.00;;;17.70;99.90;;;;;;5002381;28;20698;-84
2022/10/07 09:18:41;;;;;;;8.20;6.27;;;17.50;99.90;;;;;;4999591;28;20515;-84
2022/10/07 09:21:17;;;;;;;6.73;5.40;;;17.40;99.90;;;;;;4993090;28;20449;-87
2022/10/07 09:23:46;;;;;;;6.87;5.33;;;17.30;99.90;;;;;;5020970;28;20451;-88
2022/10/07 09:26:16;;;;;;;5.50;5.00;;;17.30;99.90;;;;;;5006301;28;20451;-84
2022/10/07 09:28:44;;;;;;;11.90;5.87;;;17.10;99.90;;;;;;4996404;28;20455;-88
2022/10/07 09:31:24;;;;;;;5.70;5.20;;;17.20;99.90;;;;;;4994779;28;20490;-84
2022/10/07 09:33:54;;;;;;;11.40;5.67;;;17.60;99.90;;;;;;5003412;28;20455;-82
2022/10/07 09:36:24;;;;;;;7.60;5.17;;;17.60;99.90;;;;;;5006301;28;20456;-84
2022/10/07 09:38:52;;;;;;;8.37;5.90;;;17.50;99.90;;;;;;5010168;28;20489;-87
2022/10/07 09:41:37;;;;;;;7.47;5.80;;;17.40;99.90;;;;;;5000368;28;20435;-83
2022/10/07 09:44:38;;;;;;;4.77;4.40;;;17.20;99.90;;;;;;5003217;28;20667;-83
2022/10/07 09:47:27;;;;;;;6.00;5.20;;;17.50;99.90;;;;;;4999677;28;20496;-85
2022/10/07 09:49:58;;;;;;;6.47;5.47;;;17.60;99.90;;;;;;4997676;28;20521;-85
2022/10/07 09:52:28;;;;;;;5.53;5.03;;;17.30;99.90;;;;;;4995543;28;20726;-84
2022/10/07 09:55:19;;;;;;;6.47;5.80;;;17.40;99.90;;;;;;4996149;28;20464;-84
2022/10/07 09:58:03;;;;;;;9.07;6.03;;;17.30;99.90;;;;;;4991248;28;20460;-82
2022/10/07 10:00:39;;;;;;;5.67;5.17;;;17.50;99.90;;;;;;4995885;28;20447;-81
2022/10/07 10:03:10;;;;;;;8.63;4.97;;;17.60;99.90;;;;;;4994393;28;20459;-84
2022/10/07 10:05:58;;;;;;;6.47;5.20;;;17.60;99.90;;;;;;5012563;28;20455;-86
2022/10/07 10:08:42;;;;;;;8.20;5.33;;;17.80;99.90;;;;;;5012285;28;20466;-85
2022/10/07 10:11:29;;;;;;;7.50;5.17;;;18.00;99.90;;;;;;5007299;28;20486;-83
2022/10/07 10:13:55;;;;;;;8.00;5.20;;;17.90;99.90;;;;;;4996390;28;20485;-85
2022/10/07 10:16:23;;;;;;;6.20;5.17;;;17.80;99.90;;;;;;4997417;28;20562;-89
2022/10/07 10:19:02;;;;;;;4.90;4.40;;;17.50;99.90;;;;;;5002625;28;20455;-87
2022/10/07 10:21:56;;;;;;;8.57;6.23;;;17.60;99.90;;;;;;4993637;28;20456;-85
2022/10/07 10:27:29;;;;;;;7.33;4.20;;;17.40;99.90;;;;;;5001471;28;20447;-87
2022/10/07 10:30:13;;;;;;;7.13;5.40;;;17.50;99.90;;;;;;4994984;28;20451;-85
2022/10/07 10:33:19;;;;;;;13.57;5.30;;;17.40;99.90;;;;;;4993686;28;20841;-86
2022/10/07 10:36:30;;;;;;;4.87;4.40;;;17.70;99.90;;;;;;4995133;28;20446;-85
2022/10/07 10:39:01;;;;;;;7.80;5.20;;;18.40;99.90;;;;;;5001971;28;20479;-84
2022/10/07 10:41:54;;;;;;;8.03;5.50;;;18.80;99.90;;;;;;5001286;28;20463;-82
2022/10/07 10:44:47;;;;;;;7.33;5.73;;;19.00;99.90;;;;;;5001502;28;20739;-86
2022/10/07 10:47:45;;;;;;;5.90;5.30;;;18.90;99.90;;;;;;5001090;28;20440;-86
2022/10/07 10:50:45;;;;;;;6.47;5.73;;;19.00;99.90;;;;;;4995901;28;20454;-90
2022/10/07 10:53:48;;;;;;;6.83;5.30;;;18.60;99.90;;;;;;5013059;28;20469;-86
2022/10/07 10:56:19;;;;;;;6.33;5.50;;;18.40;99.90;;;;;;4992139;28;20494;-83
2022/10/07 10:59:12;;;;;;;6.00;5.40;;;18.20;99.90;;;;;;4994146;28;20523;-81
2022/10/07 11:01:43;;;;;;;8.73;5.00;;;18.10;99.90;;;;;;5001563;28;20456;-84
2022/10/07 11:04:48;;;;;;;8.70;5.10;;;18.10;99.90;;;;;;4996266;28;20450;-83
2022/10/07 11:07:51;;;;;;;9.90;5.70;;;18.00;99.90;;;;;;4982554;28;20441;-84
2022/10/07 11:10:25;;;;;;;5.77;5.13;;;18.20;99.90;;;;;;4996750;28;20478;-81
2022/10/07 11:13:00;;;;;;;7.63;6.10;;;18.20;99.90;;;;;;4997142;28;20436;-82
2022/10/07 11:15:37;;;;;;;10.00;6.13;;;18.40;99.90;;;;;;4996999;28;20450;-81
2022/10/07 11:18:11;;;;;;;6.50;5.47;;;18.40;99.90;;;;;;5000051;28;20774;-82
2022/10/07 11:20:46;;;;;;;8.07;4.90;;;18.10;99.90;;;;;;4991994;28;20471;-84
2022/10/07 11:23:52;;;;;;;6.40;5.70;;;18.20;99.90;;;;;;4999595;28;20454;-84
2022/10/07 11:26:39;;;;;;;5.93;4.40;;;18.30;99.90;;;;;;4996970;28;20418;-88
2022/10/07 11:29:38;;;;;;;13.00;5.23;;;18.40;99.90;;;;;;4996860;28;20506;-90
2022/10/07 11:32:47;;;;;;;7.83;5.80;;;18.20;99.90;;;;;;4996741;28;20902;-85
2022/10/07 11:35:26;;;;;;;10.30;5.90;;;18.30;99.90;;;;;;4998133;28;20771;-86
2022/10/07 11:38:15;;;;;;;7.70;5.73;;;18.40;99.90;;;;;;4998811;28;20481;-85
2022/10/07 11:41:19;;;;;;;7.67;6.73;;;18.50;99.90;;;;;;5003204;28;20436;-80
2022/10/07 11:43:52;;;;;;;5.13;4.73;;;18.40;99.90;;;;;;4979449;28;20447;-83
2022/10/07 11:46:39;;;;;;;5.03;4.63;;;18.40;99.90;;;;;;4997900;28;20474;-83
2022/10/07 11:49:42;;;;;;;6.97;5.23;;;18.60;99.90;;;;;;4995749;28;20422;-82
2022/10/07 11:52:23;;;;;;;10.27;6.20;;;18.70;99.90;;;;;;4992854;28;20524;-81
2022/10/07 11:54:53;;;;;;;7.63;6.90;;;18.50;99.90;;;;;;5002092;28;20452;-87
2022/10/07 11:57:31;;;;;;;7.40;6.40;;;18.50;99.90;;;;;;4992856;28;20467;-83
2022/10/07 12:00:07;;;;;;;11.60;6.70;;;18.40;99.90;;;;;;5001669;28;20471;-87
2022/10/07 12:02:42;;;;;;;10.60;5.70;;;18.50;99.90;;;;;;4999466;28;20470;-88
2022/10/07 12:05:36;;;;;;;13.10;7.50;;;18.60;99.90;;;;;;5001492;28;20505;-87
2022/10/07 12:08:40;;;;;;;8.40;5.33;;;18.60;99.90;;;;;;5001030;28;20422;-89
2022/10/07 12:11:14;;;;;;;7.20;6.17;;;18.60;99.90;;;;;;4975510;28;20528;-87
2022/10/07 12:13:57;;;;;;;6.77;5.87;;;18.80;99.90;;;;;;4999054;28;20436;-88
2022/10/07 12:16:31;;;;;;;6.27;5.43;;;18.80;99.90;;;;;;5000907;28;20659;-84
2022/10/07 12:19:06;;;;;;;5.70;5.20;;;18.90;99.90;;;;;;5002090;28;20435;-84
2022/10/07 12:21:58;;;;;;;9.20;5.17;;;18.90;99.90;;;;;;5001518;28;20451;-84
2022/10/07 12:24:26;;;;;;;6.23;5.30;;;19.00;99.90;;;;;;5001017;28;20448;-88
2022/10/07 12:27:18;;;;;;;5.23;4.63;;;19.00;99.90;;;;;;5012665;28;20447;-83
2022/10/07 12:29:49;;;;;;;10.93;6.40;;;19.00;99.90;;;;;;5010992;28;20473;-84
2022/10/07 12:32:38;;;;;;;5.47;4.63;;;18.90;99.90;;;;;;4995448;28;20524;-81
2022/10/07 12:35:33;;;;;;;8.67;5.13;;;18.90;99.90;;;;;;4995838;28;20478;-89
2022/10/07 12:38:03;;;;;;;5.90;5.23;;;18.80;99.90;;;;;;5002064;28;20728;-86
2022/10/07 12:40:35;;;;;;;7.40;6.70;;;19.00;99.90;;;;;;5001040;28;21453;-86
2022/10/07 12:43:27;;;;;;;7.53;6.43;;;19.00;99.90;;;;;;5000306;28;20462;-85
2022/10/07 12:46:00;;;;;;;7.07;6.00;;;19.10;99.90;;;;;;4996946;28;20491;-84
2022/10/07 12:48:35;;;;;;;6.27;5.67;;;19.10;99.90;;;;;;4993586;28;20500;-85
2022/10/07 12:51:03;;;;;;;7.57;6.20;;;19.20;99.90;;;;;;4998753;28;20485;-85
2022/10/07 12:53:42;;;;;;;8.13;5.53;;;19.20;99.90;;;;;;5000744;28;20452;-87
2022/10/07 12:56:30;;;;;;;8.90;5.40;;;19.20;99.90;;;;;;4997932;28;20510;-87
2022/10/07 12:59:46;;;;;;;6.70;5.83;;;19.20;99.90;;;;;;4988583;28;20476;-87
2022/10/07 13:02:35;;;;;;;6.30;4.40;;;19.30;99.90;;;;;;5005164;28;20435;-85
2022/10/07 13:05:39;;;;;;;5.50;5.00;;;19.40;99.90;;;;;;5011768;28;20558;-85
2022/10/07 13:08:49;;;;;;;7.60;5.80;;;19.30;99.90;;;;;;5021009;28;20444;-84
2022/10/07 13:11:39;;;;;;;8.00;5.13;;;19.40;99.90;;;;;;5011401;28;20504;-88
2022/10/07 13:14:34;;;;;;;8.20;5.07;;;19.40;99.90;;;;;;5006577;28;20436;-90
2022/10/07 13:17:26;;;;;;;5.87;4.60;;;19.60;99.90;;;;;;5000552;28;20510;-88
2022/10/07 13:20:39;;;;;;;6.23;5.33;;;19.60;99.90;;;;;;4997247;28;20415;-84
2022/10/07 13:23:36;;;;;;;5.27;4.80;;;19.40;99.90;;;;;;5000579;28;20453;-88
2022/10/07 13:26:22;;;;;;;7.60;4.40;;;19.30;99.90;;;;;;4999590;28;20419;-87
2022/10/07 13:28:54;;;;;;;5.57;4.70;;;19.20;99.90;;;;;;5000107;28;20498;-86
2022/10/07 13:31:32;;;;;;;12.17;6.17;;;19.20;99.90;;;;;;4998241;28;20490;-84
2022/10/07 13:34:16;;;;;;;5.67;4.57;;;19.30;99.90;;;;;;5000216;28;20455;-87